EDT,Max TemperatureF,Mean TemperatureF,Min TemperatureF,Max Dew PointF,MeanDew PointF,Min DewpointF,Max Humidity, Mean Humidity, Min Humidity, Max Sea Level PressureIn, Mean Sea Level PressureIn, Min Sea Level PressureIn, Max VisibilityMiles, Mean VisibilityMiles, Min VisibilityMiles, Max Wind SpeedMPH, Mean Wind SpeedMPH, Max Gust SpeedMPH,PrecipitationIn, CloudCover, Events, WindDirDegrees
2012-9-1,76,64,52,62,53,49,87,65,43,30.11,30.06,29.90,10,10,10,17,8,23,0.00,0,,11
2012-9-2,77,62,46,54,50,46,100,70,39,30.13,30.09,30.07,10,10,10,10,2,41,0.00,1,,59
2012-9-3,81,64,46,59,54,46,100,73,45,30.17,30.10,30.00,10,10,10,20,6,24,0.00,0,,148
2012-9-4,74,69,63,67,63,56,100,84,68,30.03,29.92,29.78,10,8,2,21,10,25,1.00,7,Rain,135
2012-9-5,78,70,62,65,64,60,100,80,60,29.84,29.77,29.68,10,7,2,20,7,24,1.57,6,Rain,358
2012-9-6,80,71,61,70,65,60,100,81,62,29.86,29.81,29.75,10,9,5,16,4,22,0.00,2,Thunderstorm,179
2012-9-7,80,67,54,64,59,54,100,76,52,29.91,29.86,29.77,10,4,0,14,3,18,0.00,0,Fog,149
2012-9-8,82,70,58,67,61,49,100,79,58,29.75,29.56,29.38,10,9,1,25,10,38,0.29,3,Rain-Thunderstorm,185
2012-9-9,68,58,47,52,48,46,100,74,48,29.93,29.84,29.75,10,10,10,15,3,25,0.00,3,,356
2012-9-10,64,56,47,49,44,40,89,66,43,30.12,30.03,29.93,10,10,10,14,7,23,0.00,5,,303
2012-9-11,68,57,45,51,46,41,89,67,45,30.25,30.19,30.12,10,10,10,16,5,20,0.00,0,,177
2012-9-12,78,61,44,58,53,44,100,75,50,30.30,30.25,30.21,10,10,8,20,5,25,0.00,0,,153
2012-9-13,79,64,48,62,56,47,100,77,54,30.30,30.24,30.18,10,10,4,18,4,22,0.00,0,,149
2012-9-14,80,65,50,63,57,50,100,78,56,30.20,30.10,29.95,10,8,2,20,6,32,0.00,1,Rain,160
2012-9-15,68,60,51,58,49,44,84,65,45,30.10,30.07,30.01,10,10,10,16,7,23,0.06,6,Rain,308
2012-9-16,62,51,39,43,40,35,96,68,40,30.13,30.07,30.01,10,10,10,12,3,16,0.00,0,,251
2012-9-17,74,57,39,59,51,39,93,77,61,30.04,29.99,29.93,10,10,10,18,5,23,0.00,3,,165
2012-9-18,69,60,50,67,60,49,100,87,73,29.94,29.65,29.44,10,8,2,26,8,36,0.28,6,Rain,174
2012-9-19,64,52,40,53,41,35,89,63,36,30.23,30.00,29.61,10,10,10,16,5,28,0.14,2,Rain,287
2012-9-20,66,51,35,47,42,36,100,73,45,30.25,30.16,30.04,10,10,10,24,7,28,0.00,1,,165
2012-9-21,70,57,44,56,52,44,100,81,61,30.05,29.99,29.93,10,10,10,23,8,30,0.00,2,,168
2012-9-22,70,63,56,61,56,52,97,80,63,29.93,29.81,29.73,10,10,5,26,7,36,0.01,5,Rain,159
2012-9-23,65,53,40,50,41,35,83,59,34,30.08,29.95,29.79,10,10,10,14,5,23,0.00,3,,245
2012-9-24,61,50,39,47,42,38,93,74,55,30.12,30.06,30.00,10,10,10,17,4,21,0.01,2,,179
2012-9-25,71,54,37,48,44,38,92,70,47,30.01,29.98,29.96,10,10,10,18,6,22,0.18,2,,180
2012-9-26,67,59,50,59,54,47,93,83,73,30.05,29.96,29.90,10,10,8,21,5,24,0.08,6,Rain,179
2012-9-27,59,49,39,49,42,39,100,78,55,30.26,30.21,30.08,10,10,10,13,4,29,0.00,3,,352
2012-9-28,56,46,36,51,45,36,100,86,71,30.25,30.12,30.03,10,10,10,17,5,24,0.08,6,Rain,168
2012-9-29,55,53,51,52,51,50,100,97,93,30.01,29.97,29.94,10,8,2,15,7,29,0.20,8,Rain,344
2012-9-30,54,53,51,52,50,49,100,95,89,29.94,29.80,29.61,10,9,4,21,5,76,0.38,8,Rain,338